Time;durP1;ratioP1;P1;durP2;ratioP2;P2;SDS_P1;SDS_P2;PMS_P1;PMS_P2;Temp;Humidity;BMP_temperature;BMP_pressure;BME280_temperature;BME280_humidity;BME280_pressure;Samples;Min_cycle;Max_cycle;Signal;HPM_P1;HPM_P2
2023/06/03 00:01:29;;;;;;;3.63;0.70;;;12.70;96.00;;;;;;5096646;28;20040;-72
2023/06/03 00:03:55;;;;;;;5.18;0.90;;;12.60;96.20;;;;;;5097153;28;20044;-70
2023/06/03 00:06:21;;;;;;;1.77;0.50;;;12.50;95.90;;;;;;5115039;28;20055;-72
2023/06/03 00:08:46;;;;;;;4.55;0.70;;;12.50;95.90;;;;;;5096552;28;20051;-75
2023/06/03 00:11:13;;;;;;;2.40;0.70;;;12.50;95.80;;;;;;5096433;28;20040;-72
2023/06/03 00:13:40;;;;;;;3.63;0.68;;;12.40;95.70;;;;;;5096575;28;20093;-72
2023/06/03 00:16:06;;;;;;;3.40;0.60;;;12.40;95.60;;;;;;5080184;28;20498;-71
2023/06/03 00:18:32;;;;;;;2.88;0.68;;;12.40;95.50;;;;;;5096668;28;20382;-72
2023/06/03 00:21:01;;;;;;;4.72;0.50;;;12.30;95.40;;;;;;5114225;28;20048;-73
2023/06/03 00:23:27;;;;;;;2.15;0.70;;;12.30;95.50;;;;;;5096546;28;20481;-72
2023/06/03 00:25:53;;;;;;;2.83;0.55;;;12.30;95.10;;;;;;5095869;28;20043;-71
2023/06/03 00:28:19;;;;;;;3.33;0.65;;;12.20;95.10;;;;;;5079917;28;20084;-72
2023/06/03 00:30:45;;;;;;;2.22;0.47;;;12.20;94.80;;;;;;5114364;28;20043;-71
2023/06/03 00:33:11;;;;;;;2.92;0.50;;;12.20;94.90;;;;;;5114696;28;20046;-72
2023/06/03 00:35:37;;;;;;;1.88;0.50;;;12.10;94.90;;;;;;5115258;28;20458;-72
2023/06/03 00:38:03;;;;;;;3.30;0.55;;;12.10;94.90;;;;;;5096431;28;20481;-71
2023/06/03 00:40:29;;;;;;;2.13;0.40;;;12.00;94.80;;;;;;5079836;28;20043;-72
2023/06/03 00:42:54;;;;;;;4.05;0.60;;;12.00;94.70;;;;;;5096548;28;20389;-72
2023/06/03 00:45:20;;;;;;;3.08;0.60;;;12.00;94.70;;;;;;5079618;28;20106;-70
2023/06/03 00:47:47;;;;;;;4.53;0.60;;;11.90;94.60;;;;;;5096334;28;20043;-72
2023/06/03 00:50:14;;;;;;;4.28;0.50;;;11.90;94.60;;;;;;5080097;28;20393;-72
2023/06/03 00:52:40;;;;;;;1.90;0.50;;;11.80;94.50;;;;;;5097046;28;20047;-71
2023/06/03 00:55:06;;;;;;;2.28;0.60;;;11.80;94.50;;;;;;5114381;28;20085;-71
2023/06/03 00:57:32;;;;;;;3.40;0.50;;;11.70;94.50;;;;;;5097076;28;20090;-71
2023/06/03 00:59:58;;;;;;;2.25;0.50;;;11.70;94.50;;;;;;5114316;28;20073;-71
2023/06/03 01:02:24;;;;;;;3.97;0.40;;;11.60;94.40;;;;;;5114352;28;20040;-71
2023/06/03 01:04:51;;;;;;;1.98;0.40;;;11.60;94.40;;;;;;5095767;28;20052;-71
2023/06/03 01:07:23;;;;;;;3.33;0.55;;;11.60;94.40;;;;;;5096072;28;20050;-71
2023/06/03 01:10:00;;;;;;;2.00;0.40;;;11.50;94.40;;;;;;5114770;28;20481;-71
2023/06/03 01:12:51;;;;;;;3.97;0.50;;;11.40;94.30;;;;;;5114059;28;20040;-72
2023/06/03 01:15:20;;;;;;;2.90;0.47;;;11.40;94.30;;;;;;5114738;28;20153;-70
2023/06/03 01:17:49;;;;;;;2.67;0.45;;;11.30;94.40;;;;;;5095722;28;20066;-72
2023/06/03 01:20:16;;;;;;;1.00;0.40;;;11.30;94.30;;;;;;5113976;28;20043;-71
2023/06/03 01:22:44;;;;;;;3.72;0.43;;;11.20;94.30;;;;;;5096360;28;20491;-70
2023/06/03 01:25:16;;;;;;;2.30;0.40;;;11.20;94.30;;;;;;5114066;28;20047;-71
2023/06/03 01:27:45;;;;;;;2.00;0.40;;;11.10;94.30;;;;;;5096070;28;20052;-71
2023/06/03 01:30:14;;;;;;;2.17;0.50;;;11.10;94.30;;;;;;5096991;28;20461;-71
2023/06/03 01:32:42;;;;;;;2.45;0.40;;;11.00;94.30;;;;;;5114609;28;20054;-75
2023/06/03 01:35:10;;;;;;;5.15;0.50;;;11.00;94.40;;;;;;5118818;28;20365;-71
2023/06/03 01:37:36;;;;;;;3.70;0.60;;;10.90;94.40;;;;;;5099902;28;20051;-71
2023/06/03 01:40:04;;;;;;;5.25;0.50;;;10.90;94.40;;;;;;5117657;28;20044;-71
2023/06/03 01:42:30;;;;;;;3.42;0.80;;;10.80;94.40;;;;;;5117539;28;20043;-71
2023/06/03 01:44:59;;;;;;;2.08;0.60;;;10.80;94.40;;;;;;5117769;28;20036;-71
2023/06/03 01:47:25;;;;;;;2.15;0.40;;;10.80;94.30;;;;;;5099746;28;20067;-71
2023/06/03 01:49:51;;;;;;;1.88;0.60;;;10.80;94.30;;;;;;5118078;28;20043;-72
2023/06/03 01:52:16;;;;;;;1.73;0.43;;;10.70;94.30;;;;;;5117308;28;20086;-71
2023/06/03 01:54:43;;;;;;;4.20;0.50;;;10.70;94.20;;;;;;5099093;28;20039;-76
2023/06/03 01:57:08;;;;;;;1.58;0.40;;;10.70;94.20;;;;;;5082647;28;20100;-70
2023/06/03 01:59:34;;;;;;;1.70;0.47;;;10.60;94.20;;;;;;5098769;28;20047;-71
2023/06/03 02:02:00;;;;;;;3.63;0.40;;;10.60;94.40;;;;;;5118082;28;20051;-73
2023/06/03 02:04:26;;;;;;;1.70;0.40;;;10.50;94.30;;;;;;5119143;28;20459;-71
2023/06/03 02:06:53;;;;;;;2.60;0.50;;;10.50;94.30;;;;;;5118442;28;20043;-71
2023/06/03 02:09:27;;;;;;;2.22;0.60;;;10.40;94.30;;;;;;5117109;28;20058;-71
2023/06/03 02:11:56;;;;;;;2.42;0.50;;;10.40;94.40;;;;;;5099005;28;20043;-71
2023/06/03 02:14:23;;;;;;;3.58;0.55;;;10.30;94.40;;;;;;5116486;28;20134;-71
2023/06/03 02:16:50;;;;;;;4.38;0.50;;;10.30;94.70;;;;;;5116501;28;20059;-72
2023/06/03 02:19:19;;;;;;;1.83;0.50;;;10.20;94.50;;;;;;5116812;28;20116;-72
2023/06/03 02:21:46;;;;;;;3.75;0.50;;;10.20;94.50;;;;;;5117029;28;20339;-70
2023/06/03 02:24:14;;;;;;;1.77;0.32;;;10.10;94.50;;;;;;5098805;28;20054;-71
2023/06/03 02:26:50;;;;;;;1.50;0.32;;;10.10;94.60;;;;;;5116655;28;20478;-71
2023/06/03 02:29:22;;;;;;;2.97;0.50;;;10.10;94.70;;;;;;5098890;28;20088;-71
2023/06/03 02:31:49;;;;;;;3.47;0.40;;;10.00;94.60;;;;;;5099531;28;20309;-79
2023/06/03 02:34:15;;;;;;;1.92;0.50;;;10.00;94.50;;;;;;5098928;28;20054;-71
2023/06/03 02:36:43;;;;;;;2.22;0.40;;;10.00;94.60;;;;;;5097998;28;20035;-70
2023/06/03 02:39:10;;;;;;;2.55;0.50;;;10.00;94.80;;;;;;5115940;28;20047;-70
2023/06/03 02:41:36;;;;;;;1.83;0.45;;;9.90;94.70;;;;;;5115921;28;20104;-70
2023/06/03 02:44:03;;;;;;;2.07;0.47;;;9.90;94.70;;;;;;5116349;28;20054;-71
2023/06/03 02:46:29;;;;;;;3.47;0.40;;;9.80;94.60;;;;;;5098156;28;20039;-71
2023/06/03 02:48:55;;;;;;;2.45;0.30;;;9.80;94.50;;;;;;5081044;28;20423;-71
2023/06/03 02:51:21;;;;;;;2.55;0.50;;;9.80;94.60;;;;;;5115738;28;20052;-71
2023/06/03 02:53:46;;;;;;;2.17;0.50;;;9.80;94.50;;;;;;5115607;28;20089;-70
2023/06/03 02:56:12;;;;;;;1.50;0.40;;;9.80;94.50;;;;;;5081582;28;20040;-70
2023/06/03 02:58:39;;;;;;;1.65;0.50;;;9.80;94.50;;;;;;5115690;28;20044;-71
2023/06/03 03:01:05;;;;;;;2.88;0.40;;;9.80;94.50;;;;;;5097328;28;20112;-71
2023/06/03 03:03:36;;;;;;;2.35;0.50;;;9.80;94.70;;;;;;5115576;28;20040;-71
2023/06/03 03:06:06;;;;;;;2.33;0.45;;;9.70;94.50;;;;;;5115777;28;20070;-72
2023/06/03 03:08:33;;;;;;;3.80;0.52;;;9.70;94.50;;;;;;5116073;28;20036;-71
2023/06/03 03:10:59;;;;;;;6.47;0.60;;;9.70;94.50;;;;;;5097326;28;20044;-70
2023/06/03 03:13:24;;;;;;;2.72;0.50;;;9.60;94.40;;;;;;5097149;28;20393;-72
2023/06/03 03:15:50;;;;;;;1.55;0.40;;;9.60;94.50;;;;;;5097320;28;20043;-72
2023/06/03 03:18:16;;;;;;;2.38;0.45;;;9.60;94.50;;;;;;5115313;28;20058;-71
2023/06/03 03:20:42;;;;;;;1.45;0.73;;;9.60;94.50;;;;;;5114928;28;20469;-70
2023/06/03 03:23:11;;;;;;;4.05;0.50;;;9.60;94.50;;;;;;5115591;28;20083;-71
2023/06/03 03:25:37;;;;;;;2.10;0.63;;;9.60;94.70;;;;;;5115142;28;20066;-71
2023/06/03 03:28:03;;;;;;;4.10;0.57;;;9.50;94.70;;;;;;5115025;28;20477;-71
2023/06/03 03:30:29;;;;;;;2.03;0.40;;;9.50;95.10;;;;;;5096856;28;20043;-71
2023/06/03 03:32:58;;;;;;;4.13;0.30;;;9.50;95.40;;;;;;5096870;28;20043;-70
2023/06/03 03:35:25;;;;;;;2.35;0.70;;;9.40;95.20;;;;;;5114891;28;20047;-71
2023/06/03 03:38:10;;;;;;;3.70;0.60;;;9.50;95.90;;;;;;5096670;28;20040;-69
2023/06/03 03:40:37;;;;;;;3.13;0.60;;;9.40;95.40;;;;;;5114934;28;20075;-71
2023/06/03 03:43:03;;;;;;;;;;;9.50;95.50;;;;;;5115890;28;20426;-71
2023/06/03 03:45:36;;;;;;;2.47;0.40;;;9.50;95.60;;;;;;5096535;28;19919;-71
2023/06/03 03:48:09;;;;;;;4.38;0.55;;;9.50;95.80;;;;;;5114681;28;20048;-71
2023/06/03 03:50:43;;;;;;;2.92;0.40;;;9.50;95.50;;;;;;5096472;28;20048;-69
2023/06/03 03:53:14;;;;;;;3.53;0.45;;;9.50;95.30;;;;;;5115184;28;20079;-70
2023/06/03 03:55:42;;;;;;;2.33;0.43;;;9.60;95.30;;;;;;5096376;28;20051;-70
2023/06/03 03:58:22;;;;;;;;;;;9.60;95.20;;;;;;5114964;28;20118;-70
2023/06/03 04:00:48;;;;;;;7.45;0.60;;;9.60;95.30;;;;;;5114670;28;19963;-71
2023/06/03 04:03:14;;;;;;;2.17;0.40;;;9.60;95.10;;;;;;5096264;28;20084;-70
2023/06/03 04:05:40;;;;;;;1.73;0.50;;;9.60;96.00;;;;;;5096285;28;20100;-70
2023/06/03 04:08:06;;;;;;;3.17;0.50;;;9.60;95.90;;;;;;5096090;28;20439;-71
2023/06/03 04:10:33;;;;;;;2.42;0.50;;;9.70;96.10;;;;;;5080153;28;20127;-71
2023/06/03 04:12:59;;;;;;;1.17;0.40;;;9.70;95.90;;;;;;5095766;28;20552;-71
2023/06/03 04:15:32;;;;;;;1.83;0.50;;;9.70;95.90;;;;;;5114464;28;20123;-70
2023/06/03 04:17:58;;;;;;;4.65;0.50;;;9.80;95.80;;;;;;5096186;28;20125;-70
2023/06/03 04:20:41;;;;;;;1.50;0.50;;;9.80;95.70;;;;;;5114066;28;20104;-71
2023/06/03 04:23:20;;;;;;;3.00;0.57;;;9.90;96.20;;;;;;5114408;28;20401;-70
2023/06/03 04:25:46;;;;;;;2.00;0.63;;;9.90;96.20;;;;;;5097034;28;20048;-70
2023/06/03 04:28:13;;;;;;;2.63;0.52;;;10.00;96.50;;;;;;5113946;28;20047;-70
2023/06/03 04:30:39;;;;;;;2.65;0.63;;;10.00;96.00;;;;;;5096840;28;20075;-70
2023/06/03 04:33:05;;;;;;;5.20;0.60;;;10.10;96.10;;;;;;5113871;28;20039;-74
2023/06/03 04:35:31;;;;;;;3.60;0.60;;;10.10;95.90;;;;;;5095980;28;20370;-71
2023/06/03 04:37:59;;;;;;;6.85;1.05;;;10.20;95.80;;;;;;5113837;28;20053;-70
2023/06/03 04:40:26;;;;;;;2.13;0.50;;;10.20;95.80;;;;;;5113839;28;20056;-70
2023/06/03 04:42:53;;;;;;;3.15;0.50;;;10.30;95.80;;;;;;5096045;28;20054;-70
2023/06/03 04:45:21;;;;;;;2.90;0.60;;;10.40;96.00;;;;;;5114358;28;20055;-70
2023/06/03 04:47:47;;;;;;;2.58;0.65;;;10.40;95.90;;;;;;5113788;28;20056;-70
2023/06/03 04:50:17;;;;;;;2.25;0.50;;;10.40;96.00;;;;;;5078955;28;20054;-71
2023/06/03 04:52:43;;;;;;;2.45;0.70;;;10.50;95.90;;;;;;5095912;28;20373;-70
2023/06/03 04:55:08;;;;;;;3.20;0.50;;;10.60;95.90;;;;;;5113593;28;20040;-71
2023/06/03 04:57:37;;;;;;;3.65;0.55;;;10.60;95.80;;;;;;5095582;28;20117;-73
2023/06/03 05:00:06;;;;;;;1.52;0.40;;;10.70;96.00;;;;;;5113742;28;20043;-71
2023/06/03 05:02:31;;;;;;;2.08;0.40;;;10.70;95.90;;;;;;5079202;28;20048;-70
2023/06/03 05:04:57;;;;;;;2.38;0.60;;;10.70;95.90;;;;;;5113681;28;20116;-70
2023/06/03 05:07:24;;;;;;;3.47;0.70;;;10.80;95.90;;;;;;5115170;28;20423;-70
2023/06/03 05:09:50;;;;;;;;;;;10.80;95.90;;;;;;5117285;28;20469;-70
2023/06/03 05:12:18;;;;;;;2.55;0.65;;;11.00;95.90;;;;;;5117679;28;19967;-70
2023/06/03 05:14:45;;;;;;;2.00;0.50;;;11.00;95.80;;;;;;5066648;28;20040;-71
2023/06/03 05:17:11;;;;;;;2.88;0.45;;;11.10;95.80;;;;;;5117312;28;20130;-71
2023/06/03 05:19:37;;;;;;;2.45;0.40;;;11.10;95.70;;;;;;5066838;28;20452;-71
2023/06/03 05:22:03;;;;;;;3.00;0.50;;;11.20;95.60;;;;;;5082677;28;20083;-70
2023/06/03 05:24:29;;;;;;;3.73;0.60;;;11.30;95.40;;;;;;5099974;28;20078;-69
2023/06/03 05:26:55;;;;;;;2.10;0.40;;;11.30;95.30;;;;;;5099151;28;20040;-70
2023/06/03 05:29:20;;;;;;;3.28;0.50;;;11.40;95.30;;;;;;5082334;28;20059;-69
2023/06/03 05:31:46;;;;;;;2.55;0.65;;;11.50;95.20;;;;;;5082092;28;20485;-69
2023/06/03 05:34:12;;;;;;;4.07;0.65;;;11.60;95.10;;;;;;5099083;28;20051;-75
2023/06/03 05:36:38;;;;;;;2.85;0.60;;;11.60;94.90;;;;;;5099521;28;20070;-71
2023/06/03 05:39:04;;;;;;;3.03;0.50;;;11.70;94.90;;;;;;5116909;28;20043;-69
2023/06/03 05:41:30;;;;;;;3.10;0.57;;;11.70;94.80;;;;;;5115893;28;20079;-71
2023/06/03 05:43:55;;;;;;;5.93;0.50;;;11.80;94.50;;;;;;5099456;28;20055;-71
2023/06/03 05:46:21;;;;;;;3.40;0.40;;;11.80;94.40;;;;;;5117067;28;20044;-70
2023/06/03 05:48:47;;;;;;;4.00;0.70;;;11.90;94.30;;;;;;5116838;28;20485;-71
2023/06/03 05:51:13;;;;;;;2.33;0.60;;;12.00;94.30;;;;;;5117049;28;20051;-71
2023/06/03 05:53:43;;;;;;;2.88;0.57;;;12.00;94.30;;;;;;5116783;28;20044;-70
2023/06/03 05:56:10;;;;;;;3.40;0.60;;;12.10;94.30;;;;;;5082711;28;20047;-71
2023/06/03 05:58:36;;;;;;;2.85;0.50;;;12.10;94.30;;;;;;5098739;28;20048;-71
2023/06/03 06:01:01;;;;;;;1.55;0.38;;;12.20;94.30;;;;;;5116437;28;20052;-72
2023/06/03 06:03:27;;;;;;;4.80;0.50;;;12.30;94.30;;;;;;5098685;28;20056;-70
2023/06/03 06:05:53;;;;;;;2.33;0.47;;;12.30;94.30;;;;;;5116690;28;20075;-70
2023/06/03 06:08:19;;;;;;;2.53;0.50;;;12.40;94.10;;;;;;5081414;28;20052;-72
2023/06/03 06:10:45;;;;;;;2.97;0.50;;;12.50;93.70;;;;;;5098459;28;20100;-71
2023/06/03 06:13:10;;;;;;;4.53;0.50;;;12.50;93.80;;;;;;5098248;28;20035;-71
2023/06/03 06:15:37;;;;;;;1.08;0.40;;;12.60;93.70;;;;;;5098394;28;20466;-70
2023/06/03 06:18:03;;;;;;;1.23;0.40;;;12.70;93.40;;;;;;5115966;28;20185;-70
2023/06/03 06:20:29;;;;;;;2.65;0.55;;;12.70;93.40;;;;;;5080655;28;20104;-71
2023/06/03 06:22:54;;;;;;;2.83;0.50;;;12.80;93.50;;;;;;5116298;28;20397;-72
2023/06/03 06:25:21;;;;;;;3.20;0.50;;;12.90;93.50;;;;;;5098023;28;20043;-72
2023/06/03 06:27:47;;;;;;;2.15;0.60;;;12.90;93.50;;;;;;5116254;28;20039;-70
2023/06/03 06:30:16;;;;;;;1.73;0.40;;;13.00;93.50;;;;;;5116239;28;20105;-71
2023/06/03 06:32:50;;;;;;;3.83;0.50;;;13.10;93.50;;;;;;5116053;28;20125;-71
2023/06/03 06:35:17;;;;;;;3.08;0.60;;;13.20;93.70;;;;;;5081233;28;20047;-70
2023/06/03 06:37:43;;;;;;;1.42;0.50;;;13.40;93.90;;;;;;5081951;28;20054;-71
2023/06/03 06:40:19;;;;;;;3.97;0.50;;;13.50;94.30;;;;;;5081159;28;20392;-69
2023/06/03 06:42:45;;;;;;;3.20;0.50;;;13.60;94.10;;;;;;5081012;28;20109;-71
2023/06/03 06:45:33;;;;;;;3.88;0.52;;;13.80;93.90;;;;;;5115946;28;20047;-71
2023/06/03 06:48:04;;;;;;;3.22;0.70;;;13.90;93.60;;;;;;5116258;28;20427;-70
2023/06/03 06:50:50;;;;;;;2.47;0.50;;;14.00;93.40;;;;;;5115818;28;20055;-70
2023/06/03 06:53:18;;;;;;;2.95;0.50;;;14.10;93.00;;;;;;5097303;28;20130;-70
2023/06/03 06:55:54;;;;;;;2.15;0.50;;;14.20;92.60;;;;;;5097543;28;20050;-71
2023/06/03 06:58:21;;;;;;;3.20;0.63;;;14.30;92.00;;;;;;5097717;28;20062;-70
2023/06/03 07:00:48;;;;;;;1.45;0.43;;;14.40;92.40;;;;;;5080969;28;20051;-72
2023/06/03 07:03:21;;;;;;;2.30;0.40;;;14.40;92.40;;;;;;5097449;28;20056;-70
2023/06/03 07:05:52;;;;;;;1.00;0.30;;;14.50;91.70;;;;;;5080854;28;20058;-71
2023/06/03 07:08:18;;;;;;;2.55;0.40;;;14.60;91.60;;;;;;5115509;28;20094;-70
2023/06/03 07:10:44;;;;;;;2.25;0.30;;;14.60;91.50;;;;;;5115975;28;20166;-69
2023/06/03 07:13:13;;;;;;;1.92;0.40;;;14.80;91.50;;;;;;5115309;28;20059;-71
2023/06/03 07:15:41;;;;;;;3.20;0.50;;;14.90;91.50;;;;;;5097757;28;20059;-69
2023/06/03 07:18:08;;;;;;;1.92;0.50;;;15.00;90.90;;;;;;5080257;28;20059;-70
2023/06/03 07:20:38;;;;;;;1.70;0.40;;;15.10;90.50;;;;;;5097374;28;20058;-70
2023/06/03 07:23:08;;;;;;;1.75;0.50;;;15.20;90.50;;;;;;5115157;28;20119;-69
2023/06/03 07:25:49;;;;;;;3.28;0.30;;;15.30;90.60;;;;;;5097385;28;20052;-71
2023/06/03 07:28:15;;;;;;;4.13;0.70;;;15.40;90.50;;;;;;5115504;28;20044;-71
2023/06/03 07:30:42;;;;;;;1.42;0.40;;;15.40;90.50;;;;;;5113808;28;20055;-69
2023/06/03 07:33:29;;;;;;;1.83;0.40;;;15.50;90.30;;;;;;5115606;28;20378;-69
2023/06/03 07:36:00;;;;;;;2.75;0.40;;;15.60;88.90;;;;;;5097085;28;20070;-69
2023/06/03 07:38:38;;;;;;;1.80;0.40;;;15.70;89.20;;;;;;5063890;28;20079;-68
2023/06/03 07:41:08;;;;;;;2.72;0.40;;;15.80;89.00;;;;;;5097235;28;20092;-69
2023/06/03 07:43:35;;;;;;;3.28;0.40;;;15.90;87.70;;;;;;5114971;28;20059;-69
2023/06/03 07:46:08;;;;;;;1.98;0.30;;;16.00;88.70;;;;;;5115223;28;20043;-70
2023/06/03 07:48:37;;;;;;;1.60;0.40;;;16.00;88.20;;;;;;5096737;28;20483;-70
2023/06/03 07:51:06;;;;;;;3.10;0.40;;;16.00;87.10;;;;;;5114701;28;20083;-70
2023/06/03 07:53:36;;;;;;;2.20;0.40;;;16.10;87.00;;;;;;5096311;28;20541;-69
2023/06/03 07:56:09;;;;;;;0.90;0.28;;;16.30;86.80;;;;;;5114590;28;20096;-70
2023/06/03 07:58:36;;;;;;;3.47;0.47;;;16.60;86.70;;;;;;5096332;28;20047;-69
2023/06/03 08:01:03;;;;;;;2.88;0.40;;;16.80;86.20;;;;;;5114208;28;20493;-70
2023/06/03 08:03:31;;;;;;;3.58;0.50;;;17.00;86.20;;;;;;5096286;28;20046;-70
2023/06/03 08:05:57;;;;;;;1.63;0.40;;;17.30;86.20;;;;;;5114292;28;20477;-70
2023/06/03 08:08:32;;;;;;;1.45;0.30;;;17.60;85.50;;;;;;5080024;28;20126;-69
2023/06/03 08:11:00;;;;;;;3.92;0.30;;;17.80;83.90;;;;;;5078895;28;20048;-70
2023/06/03 08:13:25;;;;;;;1.33;0.28;;;18.00;80.50;;;;;;5095910;28;20046;-71
2023/06/03 08:15:51;;;;;;;1.73;0.20;;;18.20;82.30;;;;;;5114126;28;20045;-70
2023/06/03 08:18:32;;;;;;;1.45;0.30;;;18.50;81.70;;;;;;5075308;28;20105;-69
2023/06/03 08:21:02;;;;;;;1.48;0.25;;;18.80;80.40;;;;;;5094559;28;20058;-70
2023/06/03 08:23:27;;;;;;;2.83;0.30;;;18.90;79.30;;;;;;5094084;28;20094;-70
2023/06/03 08:25:53;;;;;;;4.95;0.40;;;19.00;78.50;;;;;;5092462;28;20486;-70
2023/06/03 08:28:19;;;;;;;3.30;0.40;;;19.10;78.10;;;;;;5092694;28;20048;-69
2023/06/03 08:30:44;;;;;;;5.53;0.30;;;19.20;75.80;;;;;;5075758;28;20048;-69
2023/06/03 08:33:10;;;;;;;2.03;0.30;;;19.10;74.60;;;;;;5093519;28;20043;-69
2023/06/03 08:35:36;;;;;;;2.92;0.30;;;18.90;75.70;;;;;;5093532;28;20040;-78
2023/06/03 08:38:02;;;;;;;2.03;0.30;;;18.80;75.10;;;;;;5092446;28;20055;-69
2023/06/03 08:40:31;;;;;;;6.13;0.30;;;18.60;71.90;;;;;;5092188;28;20048;-69
2023/06/03 08:43:02;;;;;;;3.60;0.40;;;18.30;73.60;;;;;;5093055;28;20452;-69
2023/06/03 08:45:36;;;;;;;2.40;0.20;;;18.30;72.80;;;;;;5075659;28;20050;-69
2023/06/03 08:48:26;;;;;;;4.35;0.28;;;18.10;72.50;;;;;;5092511;28;20127;-69
2023/06/03 08:50:58;;;;;;;1.13;0.20;;;18.00;72.40;;;;;;5093768;28;20083;-71
2023/06/03 08:53:24;;;;;;;4.43;0.40;;;18.00;71.90;;;;;;5092250;28;20036;-70
2023/06/03 08:55:52;;;;;;;1.00;0.20;;;18.00;72.90;;;;;;5093946;28;20052;-68
2023/06/03 08:58:26;;;;;;;1.88;0.30;;;18.00;72.30;;;;;;5092463;28;20044;-67
2023/06/03 09:01:01;;;;;;;2.03;0.30;;;18.20;71.70;;;;;;5093156;28;20097;-70
2023/06/03 09:03:27;;;;;;;1.52;0.35;;;18.40;70.00;;;;;;5092709;28;20470;-67
2023/06/03 09:05:58;;;;;;;2.55;0.30;;;18.60;68.70;;;;;;5093319;28;20031;-67
2023/06/03 09:08:25;;;;;;;2.20;0.40;;;18.80;67.50;;;;;;5093336;28;20389;-70
2023/06/03 09:10:52;;;;;;;2.35;0.30;;;19.00;68.10;;;;;;5092249;28;20056;-69
2023/06/03 09:13:19;;;;;;;6.07;0.28;;;19.10;66.10;;;;;;5091946;28;20044;-68
2023/06/03 09:15:45;;;;;;;1.15;0.28;;;19.40;66.20;;;;;;5075188;28;20044;-69
2023/06/03 09:18:13;;;;;;;2.85;0.20;;;19.50;65.70;;;;;;5074902;28;20056;-69
2023/06/03 09:20:39;;;;;;;1.35;0.20;;;19.30;64.20;;;;;;5091827;28;20048;-68
2023/06/03 09:23:06;;;;;;;2.88;0.30;;;19.40;65.00;;;;;;5092800;28;20131;-68
2023/06/03 09:25:32;;;;;;;2.72;0.30;;;19.40;65.90;;;;;;5093155;28;20040;-69
2023/06/03 09:27:57;;;;;;;3.00;0.20;;;19.60;65.60;;;;;;5093074;28;20044;-70
2023/06/03 09:30:23;;;;;;;1.40;0.30;;;19.70;64.90;;;;;;5075277;28;20040;-70
2023/06/03 09:32:49;;;;;;;1.97;0.30;;;19.90;66.90;;;;;;5075205;28;20104;-70
2023/06/03 09:35:15;;;;;;;4.30;0.30;;;20.00;65.90;;;;;;5091868;28;20128;-69
2023/06/03 09:38:00;;;;;;;1.63;0.20;;;20.10;65.40;;;;;;5092968;28;20044;-69
2023/06/03 09:40:30;;;;;;;1.00;0.20;;;20.10;65.00;;;;;;5092383;28;20048;-70
2023/06/03 09:42:56;;;;;;;1.25;0.25;;;19.90;64.50;;;;;;5091891;28;20051;-69
2023/06/03 09:45:31;;;;;;;1.52;0.32;;;19.70;63.20;;;;;;5092969;28;20389;-69
2023/06/03 09:48:01;;;;;;;2.47;0.40;;;19.20;63.40;;;;;;5091693;28;20036;-69
2023/06/03 09:50:31;;;;;;;3.50;0.30;;;18.60;62.40;;;;;;5091602;28;20082;-69
2023/06/03 09:52:58;;;;;;;3.53;0.20;;;18.60;64.80;;;;;;5091988;28;20044;-70
2023/06/03 09:55:32;;;;;;;2.88;0.20;;;18.10;64.60;;;;;;5095467;28;20044;-69
2023/06/03 09:58:02;;;;;;;1.88;0.30;;;18.00;65.30;;;;;;5096893;28;20047;-69
2023/06/03 10:00:30;;;;;;;3.25;0.40;;;17.70;64.60;;;;;;5095209;28;20048;-70
2023/06/03 10:03:07;;;;;;;1.63;0.30;;;17.30;64.90;;;;;;5096264;28;20040;-70
2023/06/03 10:05:34;;;;;;;1.50;0.20;;;17.10;65.70;;;;;;5095308;28;20153;-69
2023/06/03 10:08:02;;;;;;;;;;;17.20;67.00;;;;;;5096652;28;20087;-69
2023/06/03 10:10:28;;;;;;;3.63;0.30;;;17.30;66.60;;;;;;5096045;28;20015;-68
2023/06/03 10:12:55;;;;;;;3.00;0.30;;;17.50;66.80;;;;;;5096013;28;20043;-70
2023/06/03 10:15:35;;;;;;;1.70;0.30;;;17.80;66.40;;;;;;5078151;28;20044;-68
2023/06/03 10:18:02;;;;;;;1.65;0.20;;;18.00;67.20;;;;;;5094855;28;20522;-70
2023/06/03 10:20:36;;;;;;;1.23;0.30;;;18.20;66.80;;;;;;5096921;28;20382;-69
2023/06/03 10:23:03;;;;;;;4.28;0.30;;;18.30;65.20;;;;;;5094766;28;20199;-68
2023/06/03 10:25:38;;;;;;;2.35;0.40;;;18.50;66.80;;;;;;5096505;28;20373;-70
2023/06/03 10:28:04;;;;;;;1.88;0.30;;;18.60;65.50;;;;;;5096463;28;20044;-69
2023/06/03 10:30:31;;;;;;;1.73;0.30;;;18.70;64.70;;;;;;5078010;28;20048;-70
2023/06/03 10:33:04;;;;;;;1.58;0.25;;;18.70;63.90;;;;;;5095494;28;20395;-70
2023/06/03 10:35:34;;;;;;;2.28;0.30;;;18.70;64.80;;;;;;5095167;28;20047;-70
2023/06/03 10:38:05;;;;;;;2.45;0.30;;;18.90;64.90;;;;;;5095653;28;20101;-70
2023/06/03 10:40:32;;;;;;;3.45;0.20;;;19.00;66.30;;;;;;5077663;28;20052;-69
2023/06/03 10:42:58;;;;;;;1.02;0.22;;;19.10;65.30;;;;;;5094240;28;20052;-68
2023/06/03 10:45:26;;;;;;;2.67;0.30;;;19.20;64.40;;;;;;5095561;28;20125;-68
2023/06/03 10:47:57;;;;;;;2.88;0.30;;;19.20;63.70;;;;;;5093983;28;20286;-68
2023/06/03 10:51:01;;;;;;;2.50;0.20;;;19.20;63.80;;;;;;5095520;28;20048;-70
2023/06/03 10:53:35;;;;;;;2.30;0.30;;;19.30;63.40;;;;;;5094179;28;20043;-67
2023/06/03 10:56:26;;;;;;;3.10;0.30;;;19.20;61.70;;;;;;5094229;28;20044;-70
2023/06/03 10:59:03;;;;;;;2.15;0.30;;;19.30;61.80;;;;;;5078288;28;20048;-69
2023/06/03 11:01:56;;;;;;;3.47;0.30;;;19.30;62.30;;;;;;5095849;28;20543;-68
2023/06/03 11:04:22;;;;;;;2.22;0.30;;;19.40;62.40;;;;;;5094288;28;20393;-69
2023/06/03 11:06:47;;;;;;;2.97;0.30;;;19.50;62.10;;;;;;5093702;28;20043;-66
2023/06/03 11:09:16;;;;;;;1.60;0.20;;;19.50;61.50;;;;;;5094375;28;20450;-68
2023/06/03 11:11:42;;;;;;;1.80;0.22;;;19.60;59.70;;;;;;5094918;28;20499;-69
2023/06/03 11:14:29;;;;;;;1.27;0.30;;;19.60;60.60;;;;;;5094559;28;20052;-68
2023/06/03 11:16:58;;;;;;;2.67;0.20;;;19.70;61.50;;;;;;5069026;28;20052;-68
2023/06/03 11:19:29;;;;;;;1.15;0.30;;;19.80;61.70;;;;;;5094890;28;20134;-68
2023/06/03 11:21:55;;;;;;;2.20;0.32;;;19.80;60.00;;;;;;5093619;28;20046;-70
2023/06/03 11:24:39;;;;;;;2.87;0.30;;;19.90;59.80;;;;;;5093629;28;20048;-69
2023/06/03 11:27:12;;;;;;;1.10;0.30;;;19.70;57.50;;;;;;5095444;28;20043;-70
2023/06/03 11:29:51;;;;;;;1.90;0.30;;;19.50;55.10;;;;;;5093719;28;20043;-69
2023/06/03 11:32:28;;;;;;;1.33;0.30;;;19.60;58.50;;;;;;5093517;28;20048;-69
2023/06/03 11:35:02;;;;;;;5.85;1.55;;;19.60;56.70;;;;;;5093460;28;20073;-68
2023/06/03 11:37:40;;;;;;;6.07;1.25;;;19.70;57.60;;;;;;5076374;28;20039;-67
2023/06/03 11:40:15;;;;;;;2.42;0.30;;;19.70;58.10;;;;;;5076839;28;20047;-68
2023/06/03 11:42:47;;;;;;;2.67;0.30;;;19.80;59.10;;;;;;5094559;28;20106;-69
2023/06/03 11:45:18;;;;;;;2.38;0.20;;;19.70;58.70;;;;;;5094355;28;20073;-69
2023/06/03 11:48:04;;;;;;;2.45;0.65;;;19.80;59.70;;;;;;5093331;28;20052;-69
2023/06/03 11:50:53;;;;;;;3.33;0.30;;;19.90;60.00;;;;;;5093234;28;20058;-70
2023/06/03 11:53:33;;;;;;;3.22;0.50;;;20.10;58.90;;;;;;5094428;28;20462;-71
2023/06/03 11:56:02;;;;;;;1.45;0.28;;;20.00;58.70;;;;;;5093078;28;20044;-69
2023/06/03 11:58:28;;;;;;;4.10;0.30;;;20.00;58.90;;;;;;5094187;28;20127;-69
2023/06/03 12:01:03;;;;;;;1.80;0.37;;;20.10;59.50;;;;;;5092959;28;20181;-69
2023/06/03 12:03:29;;;;;;;3.00;0.40;;;20.10;60.00;;;;;;5094050;28;20039;-69
2023/06/03 12:05:55;;;;;;;2.63;0.23;;;20.20;60.10;;;;;;5092885;28;20048;-69
2023/06/03 12:08:21;;;;;;;3.10;0.40;;;20.20;60.00;;;;;;5076112;28;20130;-70
2023/06/03 12:10:47;;;;;;;1.00;0.30;;;20.30;60.20;;;;;;5094805;28;20128;-70
2023/06/03 12:13:13;;;;;;;1.77;0.30;;;20.40;59.50;;;;;;5092864;28;20603;-70
2023/06/03 12:15:48;;;;;;;1.88;0.30;;;20.30;59.60;;;;;;5093993;28;20048;-70
2023/06/03 12:18:14;;;;;;;2.53;0.50;;;20.20;59.50;;;;;;5092541;28;20453;-69
2023/06/03 12:20:40;;;;;;;1.53;0.40;;;20.40;61.10;;;;;;5092342;28;20059;-71
2023/06/03 12:23:06;;;;;;;4.10;0.30;;;20.50;60.80;;;;;;5093745;28;20040;-71
2023/06/03 12:25:36;;;;;;;4.47;0.35;;;20.50;61.20;;;;;;5092860;28;20091;-71
2023/06/03 12:28:25;;;;;;;1.58;0.30;;;20.40;59.10;;;;;;5075796;28;20124;-71
2023/06/03 12:30:51;;;;;;;1.48;0.30;;;20.50;60.80;;;;;;5094602;28;20044;-71
2023/06/03 12:33:18;;;;;;;2.17;0.38;;;20.50;60.70;;;;;;5092375;28;20048;-69
2023/06/03 12:35:54;;;;;;;4.57;0.40;;;20.50;61.30;;;;;;5093727;28;20048;-68
2023/06/03 12:38:21;;;;;;;2.53;0.30;;;20.60;59.00;;;;;;5092610;28;20086;-70
2023/06/03 12:40:47;;;;;;;;;;;20.70;61.00;;;;;;5092767;28;20048;-69
2023/06/03 12:43:20;;;;;;;5.87;0.30;;;20.70;61.10;;;;;;5093601;28;19942;-70
2023/06/03 12:45:47;;;;;;;2.15;0.35;;;20.80;61.00;;;;;;5076608;28;20131;-71
2023/06/03 12:48:28;;;;;;;1.30;0.30;;;20.60;57.00;;;;;;5092433;28;20055;-76
2023/06/03 12:50:54;;;;;;;2.30;0.32;;;20.60;59.20;;;;;;5076951;28;20367;-74
2023/06/03 12:53:21;;;;;;;1.70;0.30;;;20.70;59.80;;;;;;5093895;28;20049;-72
2023/06/03 12:55:47;;;;;;;1.98;0.30;;;20.80;60.30;;;;;;5093426;28;20123;-74
2023/06/03 12:58:14;;;;;;;1.38;0.20;;;20.70;59.80;;;;;;5092389;28;20064;-77
2023/06/03 13:00:40;;;;;;;1.77;0.30;;;20.80;60.20;;;;;;5092409;28;20094;-77